sensor_id;sensor_type;location;lat;lon;timestamp;pressure;altitude;pressure_sealevel;temperature;humidity
62374;BME280;48409;49.030;1.820;2022-12-05T00:01:38;100829.84;;;5.91;62.21
62374;BME280;48409;49.030;1.820;2022-12-05T00:04:07;100835.06;;;5.91;62.35
62374;BME280;48409;49.030;1.820;2022-12-05T00:06:34;100840.28;;;5.91;62.43
62374;BME280;48409;49.030;1.820;2022-12-05T00:09:00;100838.59;;;5.90;62.41
62374;BME280;48409;49.030;1.820;2022-12-05T00:11:29;100836.88;;;5.89;62.14
62374;BME280;48409;49.030;1.820;2022-12-05T00:13:56;100832.53;;;5.88;62.30
62374;BME280;48409;49.030;1.820;2022-12-05T00:16:26;100847.34;;;5.89;62.35
62374;BME280;48409;49.030;1.820;2022-12-05T00:18:52;100848.28;;;5.86;62.05
62374;BME280;48409;49.030;1.820;2022-12-05T00:21:22;100838.66;;;5.87;62.21
62374;BME280;48409;49.030;1.820;2022-12-05T00:23:49;100842.16;;;5.86;62.10
62374;BME280;48409;49.030;1.820;2022-12-05T00:26:15;100842.16;;;5.86;62.15
62374;BME280;48409;49.030;1.820;2022-12-05T00:28:41;100840.44;;;5.85;62.19
62374;BME280;48409;49.030;1.820;2022-12-05T00:31:09;100843.06;;;5.85;62.25
62374;BME280;48409;49.030;1.820;2022-12-05T00:33:38;100844.81;;;5.84;62.20
62374;BME280;48409;49.030;1.820;2022-12-05T00:36:11;100850.91;;;5.85;62.28
62374;BME280;48409;49.030;1.820;2022-12-05T00:38:37;100856.13;;;5.85;62.33
62374;BME280;48409;49.030;1.820;2022-12-05T00:41:08;100849.19;;;5.84;62.44
62374;BME280;48409;49.030;1.820;2022-12-05T00:43:34;100853.59;;;5.82;62.43
62374;BME280;48409;49.030;1.820;2022-12-05T00:46:08;100854.44;;;5.84;62.28
62374;BME280;48409;49.030;1.820;2022-12-05T00:48:34;100858.78;;;5.83;62.39
62374;BME280;48409;49.030;1.820;2022-12-05T00:51:01;100860.59;;;5.81;62.22
62374;BME280;48409;49.030;1.820;2022-12-05T00:53:27;100856.22;;;5.82;62.24
62374;BME280;48409;49.030;1.820;2022-12-05T00:55:52;100849.25;;;5.81;62.13
62374;BME280;48409;49.030;1.820;2022-12-05T00:58:18;100846.69;;;5.79;62.35
62374;BME280;48409;49.030;1.820;2022-12-05T01:00:43;100853.63;;;5.80;62.34
62374;BME280;48409;49.030;1.820;2022-12-05T01:03:08;100853.63;;;5.80;62.38
62374;BME280;48409;49.030;1.820;2022-12-05T01:05:34;100858.88;;;5.79;62.24
62374;BME280;48409;49.030;1.820;2022-12-05T01:07:59;100864.97;;;5.79;62.24
62374;BME280;48409;49.030;1.820;2022-12-05T01:10:25;100865.88;;;5.78;62.42
62374;BME280;48409;49.030;1.820;2022-12-05T01:12:50;100870.25;;;5.78;62.32
62374;BME280;48409;49.030;1.820;2022-12-05T01:15:15;100867.63;;;5.78;62.22
62374;BME280;48409;49.030;1.820;2022-12-05T01:17:41;100867.66;;;5.76;62.25
62374;BME280;48409;49.030;1.820;2022-12-05T01:20:06;100871.13;;;5.77;62.37
62374;BME280;48409;49.030;1.820;2022-12-05T01:22:32;100875.50;;;5.76;62.28
62374;BME280;48409;49.030;1.820;2022-12-05T01:24:57;100876.41;;;5.75;62.10
62374;BME280;48409;49.030;1.820;2022-12-05T01:27:23;100874.69;;;5.74;62.30
62374;BME280;48409;49.030;1.820;2022-12-05T01:29:48;100877.28;;;5.75;62.40
62374;BME280;48409;49.030;1.820;2022-12-05T01:32:13;100878.16;;;5.74;62.36
62374;BME280;48409;49.030;1.820;2022-12-05T01:34:39;100876.41;;;5.75;62.37
62374;BME280;48409;49.030;1.820;2022-12-05T01:37:04;100888.59;;;5.74;62.36
62374;BME280;48409;49.030;1.820;2022-12-05T01:39:32;100879.03;;;5.73;62.30
62374;BME280;48409;49.030;1.820;2022-12-05T01:41:58;100880.81;;;5.73;62.34
62374;BME280;48409;49.030;1.820;2022-12-05T01:46:50;100893.03;;;5.72;62.35
62374;BME280;48409;49.030;1.820;2022-12-05T01:49:20;100893.91;;;5.71;62.42
62374;BME280;48409;49.030;1.820;2022-12-05T01:51:49;100899.97;;;5.73;62.28
62374;BME280;48409;49.030;1.820;2022-12-05T01:54:17;100896.53;;;5.71;62.39
62374;BME280;48409;49.030;1.820;2022-12-05T01:56:47;100892.16;;;5.72;62.30
62374;BME280;48409;49.030;1.820;2022-12-05T01:59:17;100896.53;;;5.71;62.05
62374;BME280;48409;49.030;1.820;2022-12-05T02:01:44;100900.91;;;5.69;62.38
62374;BME280;48409;49.030;1.820;2022-12-05T02:04:09;100901.81;;;5.68;62.18
62374;BME280;48409;49.030;1.820;2022-12-05T02:06:35;100904.44;;;5.68;62.27
62374;BME280;48409;49.030;1.820;2022-12-05T02:09:01;100899.22;;;5.67;62.36
62374;BME280;48409;49.030;1.820;2022-12-05T02:11:28;100890.56;;;5.66;62.40
62374;BME280;48409;49.030;1.820;2022-12-05T02:14:25;100891.44;;;5.65;62.26
62374;BME280;48409;49.030;1.820;2022-12-05T02:17:13;100894.03;;;5.65;62.39
62374;BME280;48409;49.030;1.820;2022-12-05T02:20:03;100894.94;;;5.64;62.25
62374;BME280;48409;49.030;1.820;2022-12-05T02:28:43;100906.28;;;5.63;62.39
62374;BME280;48409;49.030;1.820;2022-12-05T02:36:45;100915.91;;;5.61;62.33
62374;BME280;48409;49.030;1.820;2022-12-05T02:39:38;100918.50;;;5.61;62.44
62374;BME280;48409;49.030;1.820;2022-12-05T02:44:36;100921.13;;;5.61;62.31
62374;BME280;48409;49.030;1.820;2022-12-05T02:47:05;100915.06;;;5.60;62.51
62374;BME280;48409;49.030;1.820;2022-12-05T02:49:34;100924.66;;;5.60;62.33
62374;BME280;48409;49.030;1.820;2022-12-05T02:52:03;100926.34;;;5.61;62.39
62374;BME280;48409;49.030;1.820;2022-12-05T02:54:34;100933.34;;;5.62;62.43
62374;BME280;48409;49.030;1.820;2022-12-05T02:57:00;100931.59;;;5.61;62.48
62374;BME280;48409;49.030;1.820;2022-12-05T02:59:26;100927.22;;;5.61;62.53
62374;BME280;48409;49.030;1.820;2022-12-05T03:01:52;100932.47;;;5.61;62.37
62374;BME280;48409;49.030;1.820;2022-12-05T03:04:20;100935.03;;;5.63;62.57
62374;BME280;48409;49.030;1.820;2022-12-05T03:09:29;100933.34;;;5.62;62.44
62374;BME280;48409;49.030;1.820;2022-12-05T03:12:11;100928.13;;;5.60;62.54
62374;BME280;48409;49.030;1.820;2022-12-05T03:14:52;100939.44;;;5.61;62.60
62374;BME280;48409;49.030;1.820;2022-12-05T03:17:21;100936.81;;;5.61;62.29
62374;BME280;48409;49.030;1.820;2022-12-05T03:19:54;100936.81;;;5.61;62.37
62374;BME280;48409;49.030;1.820;2022-12-05T03:22:52;100937.72;;;5.60;62.26
62374;BME280;48409;49.030;1.820;2022-12-05T03:25:23;100942.03;;;5.61;62.37
62374;BME280;48409;49.030;1.820;2022-12-05T03:30:30;100942.94;;;5.60;62.20
62374;BME280;48409;49.030;1.820;2022-12-05T03:33:12;100934.28;;;5.58;62.32
62374;BME280;48409;49.030;1.820;2022-12-05T03:35:50;100943.84;;;5.59;62.44
62374;BME280;48409;49.030;1.820;2022-12-05T03:38:24;100949.06;;;5.59;62.52
62374;BME280;48409;49.030;1.820;2022-12-05T03:41:12;100947.34;;;5.58;62.41
62374;BME280;48409;49.030;1.820;2022-12-05T03:43:45;100955.22;;;5.56;62.52
62374;BME280;48409;49.030;1.820;2022-12-05T03:46:21;100954.34;;;5.56;62.65
62374;BME280;48409;49.030;1.820;2022-12-05T03:48:55;100954.34;;;5.56;62.52
62374;BME280;48409;49.030;1.820;2022-12-05T03:51:25;100967.41;;;5.56;62.29
62374;BME280;48409;49.030;1.820;2022-12-05T03:54:00;100964.81;;;5.56;62.43
62374;BME280;48409;49.030;1.820;2022-12-05T03:56:43;100962.19;;;5.56;62.39
62374;BME280;48409;49.030;1.820;2022-12-05T03:59:19;100963.97;;;5.55;62.58
62374;BME280;48409;49.030;1.820;2022-12-05T04:01:49;100963.09;;;5.55;62.52
62374;BME280;48409;49.030;1.820;2022-12-05T04:04:21;100967.44;;;5.54;62.38
62374;BME280;48409;49.030;1.820;2022-12-05T04:06:53;100970.06;;;5.54;62.25
62374;BME280;48409;49.030;1.820;2022-12-05T04:09:35;100970.06;;;5.54;62.39
62374;BME280;48409;49.030;1.820;2022-12-05T04:12:07;100970.13;;;5.53;62.33
62374;BME280;48409;49.030;1.820;2022-12-05T04:14:47;100971.81;;;5.54;62.55
62374;BME280;48409;49.030;1.820;2022-12-05T04:17:26;100967.50;;;5.53;62.45
62374;BME280;48409;49.030;1.820;2022-12-05T04:20:09;100970.94;;;5.53;62.59
62374;BME280;48409;49.030;1.820;2022-12-05T04:23:11;100973.59;;;5.52;62.45
62374;BME280;48409;49.030;1.820;2022-12-05T04:25:56;100968.38;;;5.52;62.23
62374;BME280;48409;49.030;1.820;2022-12-05T04:28:34;100965.78;;;5.50;62.32
62374;BME280;48409;49.030;1.820;2022-12-05T04:31:07;100964.94;;;5.49;62.31
62374;BME280;48409;49.030;1.820;2022-12-05T04:33:45;100970.16;;;5.49;62.54
62374;BME280;48409;49.030;1.820;2022-12-05T04:36:24;100972.78;;;5.49;62.56
62374;BME280;48409;49.030;1.820;2022-12-05T04:39:06;100970.16;;;5.49;62.26
62374;BME280;48409;49.030;1.820;2022-12-05T04:41:40;100971.88;;;5.51;62.53
62374;BME280;48409;49.030;1.820;2022-12-05T04:44:10;100971.06;;;5.48;62.35
62374;BME280;48409;49.030;1.820;2022-12-05T04:46:39;100964.06;;;5.49;62.52
62374;BME280;48409;49.030;1.820;2022-12-05T04:49:09;100971.06;;;5.48;62.76
62374;BME280;48409;49.030;1.820;2022-12-05T04:51:37;100975.41;;;5.49;62.38
62374;BME280;48409;49.030;1.820;2022-12-05T04:54:10;100973.69;;;5.48;62.48
62374;BME280;48409;49.030;1.820;2022-12-05T04:56:40;100971.06;;;5.48;62.36
62374;BME280;48409;49.030;1.820;2022-12-05T04:59:09;100978.00;;;5.49;62.52
62374;BME280;48409;49.030;1.820;2022-12-05T05:01:38;100979.78;;;5.47;62.38
62374;BME280;48409;49.030;1.820;2022-12-05T05:04:13;100985.06;;;5.46;62.31
62374;BME280;48409;49.030;1.820;2022-12-05T05:06:41;100981.56;;;5.45;62.57
62374;BME280;48409;49.030;1.820;2022-12-05T05:09:07;100982.47;;;5.44;62.50
62374;BME280;48409;49.030;1.820;2022-12-05T05:11:33;100984.19;;;5.45;62.56
62374;BME280;48409;49.030;1.820;2022-12-05T05:14:00;100989.41;;;5.45;62.39
62374;BME280;48409;49.030;1.820;2022-12-05T05:16:28;100987.69;;;5.44;62.60
62374;BME280;48409;49.030;1.820;2022-12-05T05:18:54;100993.75;;;5.45;62.41
62374;BME280;48409;49.030;1.820;2022-12-05T05:21:24;100991.13;;;5.46;62.43
62374;BME280;48409;49.030;1.820;2022-12-05T05:23:49;100995.44;;;5.47;62.53
62374;BME280;48409;49.030;1.820;2022-12-05T05:26:16;100996.34;;;5.46;62.37
62374;BME280;48409;49.030;1.820;2022-12-05T05:28:42;100998.06;;;5.47;62.52
62374;BME280;48409;49.030;1.820;2022-12-05T05:31:07;100998.06;;;5.47;62.51
62374;BME280;48409;49.030;1.820;2022-12-05T05:33:35;100992.84;;;5.47;62.52
62374;BME280;48409;49.030;1.820;2022-12-05T05:36:05;100998.03;;;5.49;62.59
62374;BME280;48409;49.030;1.820;2022-12-05T05:38:34;100991.13;;;5.46;62.40
62374;BME280;48409;49.030;1.820;2022-12-05T05:41:00;101004.16;;;5.48;62.72
62374;BME280;48409;49.030;1.820;2022-12-05T05:43:25;101006.78;;;5.48;62.37
62374;BME280;48409;49.030;1.820;2022-12-05T05:45:50;101018.97;;;5.47;62.53
62374;BME280;48409;49.030;1.820;2022-12-05T05:48:16;101018.97;;;5.47;62.37
62374;BME280;48409;49.030;1.820;2022-12-05T05:50:41;101016.34;;;5.47;62.36
62374;BME280;48409;49.030;1.820;2022-12-05T05:53:07;101017.25;;;5.46;62.52
62374;BME280;48409;49.030;1.820;2022-12-05T05:55:32;101019.88;;;5.46;62.53
62374;BME280;48409;49.030;1.820;2022-12-05T05:57:57;101026.81;;;5.47;62.45
62374;BME280;48409;49.030;1.820;2022-12-05T06:00:23;101029.41;;;5.47;62.53
62374;BME280;48409;49.030;1.820;2022-12-05T06:02:48;101031.16;;;5.48;62.50
62374;BME280;48409;49.030;1.820;2022-12-05T06:05:13;101032.94;;;5.46;62.52
62374;BME280;48409;49.030;1.820;2022-12-05T06:07:39;101034.66;;;5.47;62.42
62374;BME280;48409;49.030;1.820;2022-12-05T06:10:05;101043.38;;;5.46;62.43
62374;BME280;48409;49.030;1.820;2022-12-05T06:12:30;101050.31;;;5.47;62.69
62374;BME280;48409;49.030;1.820;2022-12-05T06:14:57;101043.34;;;5.48;62.25
62374;BME280;48409;49.030;1.820;2022-12-05T06:17:22;101043.38;;;5.46;62.36
62374;BME280;48409;49.030;1.820;2022-12-05T06:19:48;101039.00;;;5.48;62.58
62374;BME280;48409;49.030;1.820;2022-12-05T06:22:13;101039.03;;;5.47;62.37
62374;BME280;48409;49.030;1.820;2022-12-05T06:24:38;101043.38;;;5.46;62.57
62374;BME280;48409;49.030;1.820;2022-12-05T06:27:04;101045.16;;;5.46;62.55
62374;BME280;48409;49.030;1.820;2022-12-05T06:29:29;101055.59;;;5.46;62.51
62374;BME280;48409;49.030;1.820;2022-12-05T06:31:55;101049.50;;;5.45;62.42
62374;BME280;48409;49.030;1.820;2022-12-05T06:34:20;101052.13;;;5.45;62.57
62374;BME280;48409;49.030;1.820;2022-12-05T06:36:45;101052.13;;;5.45;62.71
62374;BME280;48409;49.030;1.820;2022-12-05T06:39:11;101059.06;;;5.46;62.53
62374;BME280;48409;49.030;1.820;2022-12-05T06:41:36;101042.56;;;5.44;62.54
62374;BME280;48409;49.030;1.820;2022-12-05T06:44:02;101053.00;;;5.46;62.51
62374;BME280;48409;49.030;1.820;2022-12-05T06:46:27;101062.56;;;5.45;62.35
62374;BME280;48409;49.030;1.820;2022-12-05T06:48:56;101058.25;;;5.44;62.43
62374;BME280;48409;49.030;1.820;2022-12-05T06:51:23;101062.56;;;5.45;62.70
62374;BME280;48409;49.030;1.820;2022-12-05T06:53:49;101067.78;;;5.45;62.50
62374;BME280;48409;49.030;1.820;2022-12-05T06:56:18;101076.53;;;5.44;62.56
62374;BME280;48409;49.030;1.820;2022-12-05T06:58:46;101076.53;;;5.44;62.51
62374;BME280;48409;49.030;1.820;2022-12-05T07:01:18;101082.59;;;5.45;62.39
62374;BME280;48409;49.030;1.820;2022-12-05T07:04:16;101093.06;;;5.43;62.29
62374;BME280;48409;49.030;1.820;2022-12-05T07:06:44;101093.97;;;5.42;62.49
62374;BME280;48409;49.030;1.820;2022-12-05T07:09:11;101095.69;;;5.43;62.51
62374;BME280;48409;49.030;1.820;2022-12-05T07:11:37;101094.84;;;5.43;62.46
62374;BME280;48409;49.030;1.820;2022-12-05T07:14:03;101104.41;;;5.42;62.51
62374;BME280;48409;49.030;1.820;2022-12-05T07:16:29;101099.19;;;5.42;62.44
62374;BME280;48409;49.030;1.820;2022-12-05T07:18:55;101102.69;;;5.41;62.46
62374;BME280;48409;49.030;1.820;2022-12-05T07:21:21;101102.69;;;5.41;62.49
62374;BME280;48409;49.030;1.820;2022-12-05T07:23:47;101104.50;;;5.39;62.47
62374;BME280;48409;49.030;1.820;2022-12-05T07:26:20;101104.50;;;5.39;62.30
62374;BME280;48409;49.030;1.820;2022-12-05T07:28:46;101109.72;;;5.39;62.43
62374;BME280;48409;49.030;1.820;2022-12-05T07:31:20;101112.34;;;5.39;62.45
62374;BME280;48409;49.030;1.820;2022-12-05T07:33:47;101107.13;;;5.38;62.51
62374;BME280;48409;49.030;1.820;2022-12-05T07:36:15;101112.34;;;5.39;62.65
62374;BME280;48409;49.030;1.820;2022-12-05T07:38:58;101113.19;;;5.38;62.47
62374;BME280;48409;49.030;1.820;2022-12-05T07:41:26;101119.31;;;5.37;62.53
62374;BME280;48409;49.030;1.820;2022-12-05T07:43:54;101118.44;;;5.38;62.38
62374;BME280;48409;49.030;1.820;2022-12-05T07:46:20;101115.00;;;5.36;62.63
62374;BME280;48409;49.030;1.820;2022-12-05T07:48:46;101116.72;;;5.37;62.56
62374;BME280;48409;49.030;1.820;2022-12-05T07:51:12;101111.47;;;5.37;62.52
62374;BME280;48409;49.030;1.820;2022-12-05T07:53:38;101120.22;;;5.36;62.50
62374;BME280;48409;49.030;1.820;2022-12-05T07:56:07;101121.94;;;5.37;62.41
62374;BME280;48409;49.030;1.820;2022-12-05T07:58:34;101125.44;;;5.36;62.55
62374;BME280;48409;49.030;1.820;2022-12-05T08:01:06;101120.22;;;5.36;62.48
62374;BME280;48409;49.030;1.820;2022-12-05T08:03:34;101128.03;;;5.38;62.47
62374;BME280;48409;49.030;1.820;2022-12-05T08:06:04;101130.66;;;5.36;62.36
62374;BME280;48409;49.030;1.820;2022-12-05T08:08:30;101134.19;;;5.35;62.54
62374;BME280;48409;49.030;1.820;2022-12-05T08:10:55;101141.13;;;5.34;62.55
62374;BME280;48409;49.030;1.820;2022-12-05T08:13:21;101140.25;;;5.34;62.39
62374;BME280;48409;49.030;1.820;2022-12-05T08:15:46;101142.88;;;5.34;62.71
62374;BME280;48409;49.030;1.820;2022-12-05T08:18:11;101149.84;;;5.35;62.48
62374;BME280;48409;49.030;1.820;2022-12-05T08:20:37;101155.91;;;5.35;62.60
62374;BME280;48409;49.030;1.820;2022-12-05T08:23:02;101159.41;;;5.36;62.39
62374;BME280;48409;49.030;1.820;2022-12-05T08:25:30;101158.56;;;5.34;62.51
62374;BME280;48409;49.030;1.820;2022-12-05T08:27:57;101159.44;;;5.33;62.58
62374;BME280;48409;49.030;1.820;2022-12-05T08:30:23;101163.78;;;5.34;62.73
62374;BME280;48409;49.030;1.820;2022-12-05T08:32:48;101162.03;;;5.34;62.58
62374;BME280;48409;49.030;1.820;2022-12-05T08:35:13;101160.31;;;5.35;62.57
62374;BME280;48409;49.030;1.820;2022-12-05T08:37:40;101164.63;;;5.36;62.49
62374;BME280;48409;49.030;1.820;2022-12-05T08:40:06;101169.84;;;5.36;62.49
62374;BME280;48409;49.030;1.820;2022-12-05T08:42:31;101167.25;;;5.36;62.51
62374;BME280;48409;49.030;1.820;2022-12-05T08:44:57;101166.34;;;5.37;62.55
62374;BME280;48409;49.030;1.820;2022-12-05T08:47:22;101165.44;;;5.38;62.46
62374;BME280;48409;49.030;1.820;2022-12-05T08:49:47;101170.69;;;5.38;62.74
62374;BME280;48409;49.030;1.820;2022-12-05T08:52:13;101172.44;;;5.39;62.55
62374;BME280;48409;49.030;1.820;2022-12-05T08:54:38;101172.44;;;5.39;62.72
62374;BME280;48409;49.030;1.820;2022-12-05T08:57:04;101171.56;;;5.39;62.49
62374;BME280;48409;49.030;1.820;2022-12-05T08:59:29;101170.63;;;5.41;62.80
62374;BME280;48409;49.030;1.820;2022-12-05T09:01:54;101173.25;;;5.41;62.75
62374;BME280;48409;49.030;1.820;2022-12-05T09:04:20;101171.50;;;5.42;62.53
62374;BME280;48409;49.030;1.820;2022-12-05T09:06:45;101170.63;;;5.41;62.65
62374;BME280;48409;49.030;1.820;2022-12-05T09:09:11;101172.34;;;5.42;62.50
62374;BME280;48409;49.030;1.820;2022-12-05T09:11:43;101167.13;;;5.42;62.69
62374;BME280;48409;49.030;1.820;2022-12-05T09:14:13;101173.22;;;5.44;62.66
62374;BME280;48409;49.030;1.820;2022-12-05T09:16:39;101177.53;;;5.45;62.78
62374;BME280;48409;49.030;1.820;2022-12-05T09:19:17;101184.47;;;5.46;62.80
62374;BME280;48409;49.030;1.820;2022-12-05T09:21:45;101176.66;;;5.45;62.68
62374;BME280;48409;49.030;1.820;2022-12-05T09:24:11;101174.03;;;5.46;62.84
62374;BME280;48409;49.030;1.820;2022-12-05T09:26:37;101180.13;;;5.47;62.75
62374;BME280;48409;49.030;1.820;2022-12-05T09:29:02;101178.34;;;5.47;62.85
62374;BME280;48409;49.030;1.820;2022-12-05T09:31:28;101182.72;;;5.48;62.64
62374;BME280;48409;49.030;1.820;2022-12-05T09:33:54;101189.66;;;5.49;62.72
62374;BME280;48409;49.030;1.820;2022-12-05T09:36:22;101197.47;;;5.51;62.90
62374;BME280;48409;49.030;1.820;2022-12-05T09:38:48;101193.09;;;5.52;62.62
62374;BME280;48409;49.030;1.820;2022-12-05T09:44:38;101206.16;;;5.53;62.90
62374;BME280;48409;49.030;1.820;2022-12-05T09:47:29;101205.31;;;5.53;62.71
62374;BME280;48409;49.030;1.820;2022-12-05T10:06:35;101222.69;;;5.54;62.86
62374;BME280;48409;49.030;1.820;2022-12-05T10:12:50;101220.06;;;5.55;62.79
62374;BME280;48409;49.030;1.820;2022-12-05T10:18:00;101220.91;;;5.56;63.00
62374;BME280;48409;49.030;1.820;2022-12-05T10:20:49;101232.22;;;5.58;62.79
62374;BME280;48409;49.030;1.820;2022-12-05T10:23:30;101219.16;;;5.58;62.80
62374;BME280;48409;49.030;1.820;2022-12-05T10:26:02;101213.03;;;5.57;62.84
62374;BME280;48409;49.030;1.820;2022-12-05T10:28:49;101218.25;;;5.59;62.91
62374;BME280;48409;49.030;1.820;2022-12-05T10:31:20;101211.31;;;5.58;63.02
62374;BME280;48409;49.030;1.820;2022-12-05T10:34:00;101220.88;;;5.59;62.97
62374;BME280;48409;49.030;1.820;2022-12-05T10:36:30;101219.97;;;5.60;63.06
62374;BME280;48409;49.030;1.820;2022-12-05T10:38:57;101224.31;;;5.61;62.79
62374;BME280;48409;49.030;1.820;2022-12-05T10:41:23;101219.94;;;5.61;63.02
62374;BME280;48409;49.030;1.820;2022-12-05T10:43:48;101228.66;;;5.62;62.73
62374;BME280;48409;49.030;1.820;2022-12-05T10:46:15;101222.53;;;5.63;62.95
62374;BME280;48409;49.030;1.820;2022-12-05T10:48:41;101223.41;;;5.64;62.85
62374;BME280;48409;49.030;1.820;2022-12-05T10:51:13;101225.13;;;5.65;62.92
62374;BME280;48409;49.030;1.820;2022-12-05T10:53:42;101228.56;;;5.67;62.79
62374;BME280;48409;49.030;1.820;2022-12-05T10:56:48;101225.97;;;5.67;62.88
62374;BME280;48409;49.030;1.820;2022-12-05T10:59:20;101227.72;;;5.66;62.73
62374;BME280;48409;49.030;1.820;2022-12-05T11:01:57;101217.28;;;5.66;62.98
62374;BME280;48409;49.030;1.820;2022-12-05T11:10:00;101225.06;;;5.68;62.95
62374;BME280;48409;49.030;1.820;2022-12-05T11:12:26;101227.66;;;5.69;63.04
62374;BME280;48409;49.030;1.820;2022-12-05T11:14:54;101233.75;;;5.70;63.04
62374;BME280;48409;49.030;1.820;2022-12-05T11:17:34;101232.84;;;5.71;62.77
62374;BME280;48409;49.030;1.820;2022-12-05T11:20:01;101222.38;;;5.72;62.93
62374;BME280;48409;49.030;1.820;2022-12-05T11:22:36;101215.44;;;5.71;63.08
62374;BME280;48409;49.030;1.820;2022-12-05T11:25:24;101219.75;;;5.74;62.99
62374;BME280;48409;49.030;1.820;2022-12-05T11:30:55;101224.03;;;5.78;63.02
62374;BME280;48409;49.030;1.820;2022-12-05T11:33:22;101223.13;;;5.79;63.13
62374;BME280;48409;49.030;1.820;2022-12-05T11:35:53;101227.44;;;5.82;63.16
62374;BME280;48409;49.030;1.820;2022-12-05T11:38:23;101226.56;;;5.83;63.11
62374;BME280;48409;49.030;1.820;2022-12-05T11:41:08;101221.31;;;5.84;63.14
62374;BME280;48409;49.030;1.820;2022-12-05T11:46:42;101218.63;;;5.89;63.21
62374;BME280;48409;49.030;1.820;2022-12-05T11:52:07;101220.28;;;5.93;63.39
62374;BME280;48409;49.030;1.820;2022-12-05T11:55:13;101216.78;;;5.94;63.06
62374;BME280;48409;49.030;1.820;2022-12-05T12:00:18;101221.97;;;5.97;63.37
62374;BME280;48409;49.030;1.820;2022-12-05T12:06:08;101216.66;;;6.00;63.34
62374;BME280;48409;49.030;1.820;2022-12-05T12:11:51;101221.00;;;6.03;63.29
62374;BME280;48409;49.030;1.820;2022-12-05T12:14:29;101207.03;;;6.04;63.37
62374;BME280;48409;49.030;1.820;2022-12-05T12:19:47;101199.19;;;6.06;63.34
62374;BME280;48409;49.030;1.820;2022-12-05T12:25:23;101194.72;;;6.11;63.17
62374;BME280;48409;49.030;1.820;2022-12-05T12:28:26;101195.53;;;6.13;63.35
62374;BME280;48409;49.030;1.820;2022-12-05T12:44:55;101204.09;;;6.21;63.53
62374;BME280;48409;49.030;1.820;2022-12-05T12:52:50;101213.56;;;6.29;63.33
62374;BME280;48409;49.030;1.820;2022-12-05T12:55:24;101217.03;;;6.29;63.49
62374;BME280;48409;49.030;1.820;2022-12-05T12:58:10;101209.13;;;6.31;63.44
62374;BME280;48409;49.030;1.820;2022-12-05T13:00:50;101210.84;;;6.32;63.32
62374;BME280;48409;49.030;1.820;2022-12-05T13:03:26;101209.09;;;6.34;63.28
62374;BME280;48409;49.030;1.820;2022-12-05T13:05:58;101210.81;;;6.35;63.42
62374;BME280;48409;49.030;1.820;2022-12-05T13:08:29;101209.06;;;6.35;63.24
62374;BME280;48409;49.030;1.820;2022-12-05T13:10:59;101214.28;;;6.37;63.18
62374;BME280;48409;49.030;1.820;2022-12-05T13:13:33;101203.81;;;6.37;63.35
62374;BME280;48409;49.030;1.820;2022-12-05T13:16:04;101197.66;;;6.38;63.24
62374;BME280;48409;49.030;1.820;2022-12-05T13:18:32;101195.06;;;6.38;63.26
62374;BME280;48409;49.030;1.820;2022-12-05T13:21:01;101196.78;;;6.39;63.12
62374;BME280;48409;49.030;1.820;2022-12-05T13:23:34;101203.72;;;6.40;63.42
62374;BME280;48409;49.030;1.820;2022-12-05T13:26:06;101198.47;;;6.40;63.26
62374;BME280;48409;49.030;1.820;2022-12-05T13:28:36;101201.13;;;6.38;63.09
62374;BME280;48409;49.030;1.820;2022-12-05T13:31:07;101204.63;;;6.39;63.25
62374;BME280;48409;49.030;1.820;2022-12-05T13:33:41;101202.06;;;6.36;63.02
62374;BME280;48409;49.030;1.820;2022-12-05T13:36:10;101202.91;;;6.38;63.23
62374;BME280;48409;49.030;1.820;2022-12-05T13:39:01;101189.81;;;6.38;63.13
62374;BME280;48409;49.030;1.820;2022-12-05T13:41:50;101193.34;;;6.37;63.04
62374;BME280;48409;49.030;1.820;2022-12-05T13:47:06;101193.34;;;6.37;63.19
62374;BME280;48409;49.030;1.820;2022-12-05T13:49:45;101187.19;;;6.38;63.23
62374;BME280;48409;49.030;1.820;2022-12-05T13:52:18;101188.94;;;6.37;63.05
62374;BME280;48409;49.030;1.820;2022-12-05T13:55:28;101191.53;;;6.39;63.21
62374;BME280;48409;49.030;1.820;2022-12-05T13:57:55;101194.16;;;6.39;63.08
62374;BME280;48409;49.030;1.820;2022-12-05T14:00:29;101186.31;;;6.39;62.91
62374;BME280;48409;49.030;1.820;2022-12-05T14:03:05;101193.25;;;6.40;63.05
62374;BME280;48409;49.030;1.820;2022-12-05T14:05:41;101191.53;;;6.39;63.11
62374;BME280;48409;49.030;1.820;2022-12-05T14:15:43;101201.06;;;6.42;62.94
62374;BME280;48409;49.030;1.820;2022-12-05T14:18:23;101197.59;;;6.41;63.11
62374;BME280;48409;49.030;1.820;2022-12-05T14:24:06;101198.44;;;6.43;63.04
62374;BME280;48409;49.030;1.820;2022-12-05T14:29:55;101211.53;;;6.43;63.04
62374;BME280;48409;49.030;1.820;2022-12-05T14:32:38;101208.91;;;6.43;62.97
62374;BME280;48409;49.030;1.820;2022-12-05T14:38:05;101210.63;;;6.44;63.13
62374;BME280;48409;49.030;1.820;2022-12-05T14:40:37;101197.56;;;6.43;63.11
62374;BME280;48409;49.030;1.820;2022-12-05T14:43:17;101210.63;;;6.44;62.88
62374;BME280;48409;49.030;1.820;2022-12-05T14:50:47;101215.84;;;6.44;63.08
62374;BME280;48409;49.030;1.820;2022-12-05T14:53:20;101216.69;;;6.46;63.01
62374;BME280;48409;49.030;1.820;2022-12-05T14:56:02;101217.56;;;6.45;63.06
62374;BME280;48409;49.030;1.820;2022-12-05T15:01:06;101221.03;;;6.47;63.03
62374;BME280;48409;49.030;1.820;2022-12-05T15:04:18;101230.63;;;6.47;62.96
62374;BME280;48409;49.030;1.820;2022-12-05T15:06:48;101224.56;;;6.46;62.93
62374;BME280;48409;49.030;1.820;2022-12-05T15:09:53;101228.91;;;6.46;62.90
62374;BME280;48409;49.030;1.820;2022-12-05T15:12:26;101224.56;;;6.45;62.91
62374;BME280;48409;49.030;1.820;2022-12-05T15:15:00;101227.22;;;6.43;62.86
62374;BME280;48409;49.030;1.820;2022-12-05T15:17:53;101232.47;;;6.43;62.94
62374;BME280;48409;49.030;1.820;2022-12-05T15:23:40;101238.59;;;6.42;62.95
62374;BME280;48409;49.030;1.820;2022-12-05T15:26:18;101247.31;;;6.41;62.74
62374;BME280;48409;49.030;1.820;2022-12-05T15:29:09;101239.50;;;6.39;62.72